Skip Navigation Links Skip Navigation Links

Current Weather

Ames Muni, Ames, Iowa

For information only: do not use for flight planning or navigation.
Latest weather
Observation time Tuesday, October 19, 2021 2:53 AM CDT
Local time Tuesday, October 19, 2021 3:37 AM CDT
Flight conditions Visual Meteorological Conditions
Winds
Wind direction Southeast (140°)
Wind speed 7 mph
Visibility 10 mi.
Sky condition
Ceiling unlimited
Cloud layer scattered clouds 12,000 ft.
Temperature 49°F
Dewpoint 43°F
Altimeter 29.99 in.Hg
Derived measurements
Relative humidity 80%
Wind chill 46°F
Density altitude 342 ft.
Sea-level pressure 29.98 in.Hg
Remarks
Fully automated report.
Automated weather observing station with precipitation discriminator.
METAR KAMW 190753Z AUTO 14006KT 10SM SCT120 09/06 A2999 RMK AO2 SLP151 T00940061

Settings

Location code

InnerDrive.Weather 4.0.6770.0 Release CLR 4.0.30319.42000
Copyright ©2018 Inner Drive Technology. All rights reserved. Portions Copyright ©1986-2018 David Braverman.

Find weather

Site navigation


Skip Navigation Links

Place info

Page info

PayPal - The safer, easier way to pay online!

Return home.

Copyright ©2021 Inner Drive Technology. Purveyors of fine, hand-crafted computer software. Page printed 2021-10-19T08:37:29 UTC.